Time;durP1;ratioP1;P1;durP2;ratioP2;P2;SDS_P1;SDS_P2;PMS_P1;PMS_P2;Temp;Humidity;BMP_temperature;BMP_pressure;BME280_temperature;BME280_humidity;BME280_pressure;Samples;Min_cycle;Max_cycle;Signal;HPM_P1;HPM_P2
2022/01/03 00:02:28;;;;;;;8.15;4.60;;;1.00;99.90;;;1.64;100.00;97366.56;4962356;28;120145;-75
2022/01/03 00:04:56;;;;;;;7.03;4.00;;;1.00;99.90;;;1.69;100.00;97352.28;4962477;28;119372;-74
2022/01/03 00:07:26;;;;;;;6.63;4.22;;;0.90;99.90;;;1.68;100.00;97348.78;4962776;28;129801;-75
2022/01/03 00:09:57;;;;;;;8.43;4.72;;;1.00;99.90;;;1.70;100.00;97343.94;4979253;28;129547;-74
2022/01/03 00:12:27;;;;;;;6.68;4.07;;;1.00;99.90;;;1.72;100.00;97344.41;4962008;28;119748;-75
2022/01/03 00:14:57;;;;;;;7.25;4.28;;;1.00;99.90;;;1.70;100.00;97333.25;4964954;28;119714;-75
2022/01/03 00:17:26;;;;;;;8.13;4.60;;;1.00;99.90;;;1.72;100.00;97328.38;4961904;28;128342;-76
2022/01/03 00:19:55;;;;;;;8.05;4.40;;;1.00;99.90;;;1.68;100.00;97319.38;4962382;28;129752;-75
2022/01/03 00:22:25;;;;;;;9.23;4.72;;;1.00;99.90;;;1.74;100.00;97312.03;4964878;28;119343;-75
2022/01/03 00:25:03;;;;;;;8.52;4.60;;;1.00;99.90;;;1.70;100.00;97317.19;4965826;28;119368;-75
2022/01/03 00:27:41;;;;;;;7.85;4.57;;;1.00;99.90;;;1.70;100.00;97303.84;4979713;28;130201;-75
2022/01/03 00:30:12;;;;;;;8.60;4.45;;;1.00;99.90;;;1.66;100.00;97305.53;4966930;28;129264;-75
2022/01/03 00:32:44;;;;;;;8.73;4.90;;;1.00;99.90;;;1.73;100.00;97289.84;4981918;28;119884;-75
2022/01/03 00:35:16;;;;;;;7.80;4.20;;;1.00;99.90;;;1.78;100.00;97289.72;4979533;28;119159;-75
2022/01/03 00:37:46;;;;;;;7.78;4.55;;;1.10;99.90;;;1.78;100.00;97280.91;4966913;28;129544;-75
2022/01/03 00:40:18;;;;;;;7.75;4.78;;;1.00;99.90;;;1.75;100.00;97276.94;4980004;28;129995;-74
2022/01/03 00:42:49;;;;;;;7.90;4.63;;;1.00;99.90;;;1.76;100.00;97273.19;4963584;28;122220;-75
2022/01/03 00:45:18;;;;;;;9.20;5.55;;;1.00;99.90;;;1.77;100.00;97269.41;4965116;28;123122;-74
2022/01/03 00:47:48;;;;;;;9.07;5.22;;;1.00;99.90;;;1.77;100.00;97258.69;4960624;28;130375;-75
2022/01/03 00:50:21;;;;;;;9.73;5.35;;;1.00;99.90;;;1.74;100.00;97248.63;4963930;28;130124;-75
2022/01/03 00:52:51;;;;;;;8.15;4.40;;;1.00;99.90;;;1.72;100.00;97245.47;4966548;28;119766;-75
2022/01/03 00:55:20;;;;;;;9.18;4.78;;;1.00;99.90;;;1.75;100.00;97244.84;4982788;28;119752;-75
2022/01/03 00:58:02;;;;;;;8.18;4.88;;;1.00;99.90;;;1.66;100.00;97235.22;4981747;28;130153;-75
2022/01/03 01:00:36;;;;;;;7.93;5.03;;;1.10;99.90;;;1.77;100.00;97233.84;4999607;28;129865;-75
2022/01/03 01:03:10;;;;;;;9.85;5.38;;;1.10;99.90;;;1.80;100.00;97231.34;4983168;28;119529;-75
2022/01/03 01:05:42;;;;;;;8.68;4.93;;;1.10;99.90;;;1.88;100.00;97215.63;4965623;28;119413;-75
2022/01/03 01:08:11;;;;;;;11.65;5.88;;;1.10;99.90;;;1.93;100.00;97212.81;4962897;28;129736;-75
2022/01/03 01:10:42;;;;;;;9.07;5.47;;;1.10;99.90;;;1.98;100.00;97196.63;4964296;28;129418;-75
2022/01/03 01:13:14;;;;;;;10.13;5.95;;;1.20;99.90;;;2.03;100.00;97196.47;4956814;28;118776;-75
2022/01/03 01:15:43;;;;;;;8.07;5.47;;;1.20;99.90;;;2.02;100.00;97199.47;4959400;28;118441;-75
2022/01/03 01:18:13;;;;;;;10.93;5.85;;;1.20;99.90;;;2.05;100.00;97186.25;4948487;28;129081;-75
2022/01/03 01:20:43;;;;;;;10.57;6.20;;;1.20;99.90;;;2.03;100.00;97180.44;4958776;28;130193;-75
2022/01/03 01:23:14;;;;;;;9.00;5.90;;;1.20;99.90;;;1.98;100.00;97172.56;4948720;28;118355;-75
2022/01/03 01:28:30;;;;;;;9.55;6.15;;;1.20;99.90;;;1.92;100.00;97166.56;4962964;28;130333;-75
2022/01/03 01:31:03;;;;;;;9.35;5.70;;;1.10;99.90;;;1.91;100.00;97161.53;4963602;28;129449;-75
2022/01/03 01:33:35;;;;;;;9.77;5.93;;;1.10;99.90;;;1.98;100.00;97156.50;4964279;28;122319;-75
2022/01/03 01:36:07;;;;;;;9.93;5.63;;;1.10;99.90;;;2.05;100.00;97156.81;4982120;28;120691;-75
2022/01/03 01:38:40;;;;;;;9.65;5.63;;;1.20;99.90;;;2.06;100.00;97154.94;4980653;28;129433;-75
2022/01/03 01:41:10;;;;;;;9.30;5.68;;;1.20;99.90;;;2.01;100.00;97139.84;4998545;28;129534;-75
2022/01/03 01:43:50;;;;;;;10.57;5.82;;;1.20;99.90;;;1.95;100.00;97149.09;4958406;28;120793;-74
2022/01/03 01:46:24;;;;;;;10.20;5.53;;;1.20;99.90;;;2.02;100.00;97141.38;4965380;28;119058;-75
2022/01/03 01:49:05;;;;;;;9.23;5.22;;;1.20;99.90;;;2.08;100.00;97134.00;4965476;28;130144;-74
2022/01/03 01:51:38;;;;;;;8.68;4.95;;;1.20;99.90;;;2.00;100.00;97116.84;4981921;28;129330;-74
2022/01/03 01:54:17;;;;;;;8.88;5.47;;;1.20;99.90;;;2.03;100.00;97116.22;4965533;28;119955;-74
2022/01/03 01:57:02;;;;;;;9.20;5.05;;;1.20;99.90;;;2.03;100.00;97110.09;4957893;28;119840;-74
2022/01/03 01:59:45;;;;;;;9.43;4.97;;;1.20;99.90;;;2.10;100.00;97103.19;4963063;28;128736;-73
2022/01/03 02:02:27;;;;;;;10.38;5.00;;;1.20;99.90;;;2.15;100.00;97094.97;4997028;28;129957;-74
2022/01/03 02:05:17;;;;;;;8.40;4.80;;;1.30;99.90;;;2.07;100.00;97090.44;4976643;28;118669;-74
2022/01/03 02:08:13;;;;;;;7.88;4.22;;;1.30;99.90;;;2.11;100.00;97083.31;4962411;28;119475;-74
2022/01/03 02:10:44;;;;;;;7.82;4.57;;;1.30;99.90;;;2.09;100.00;97072.16;4948184;28;129311;-75
2022/01/03 02:13:20;;;;;;;7.43;4.57;;;1.30;99.90;;;2.14;100.00;97063.97;4964659;28;129577;-75
2022/01/03 02:16:03;;;;;;;9.18;5.53;;;1.30;99.90;;;2.12;100.00;97066.19;4976281;28;119941;-75
2022/01/03 02:18:34;;;;;;;9.65;5.30;;;1.30;99.90;;;2.19;100.00;97062.25;4983033;28;119335;-75
2022/01/03 02:21:05;;;;;;;8.50;5.50;;;1.30;99.90;;;2.13;100.00;97056.25;4964747;28;130093;-78
2022/01/03 02:23:36;;;;;;;8.32;5.20;;;1.30;99.90;;;2.16;100.00;97045.69;4949649;28;129111;-76
2022/01/03 02:26:04;;;;;;;9.38;5.40;;;1.30;99.90;;;2.21;100.00;97039.41;4947431;28;120888;-74
2022/01/03 02:28:33;;;;;;;10.93;6.00;;;1.40;99.90;;;2.27;100.00;97042.69;4961871;28;122131;-74
2022/01/03 02:31:03;;;;;;;8.55;5.35;;;1.40;99.90;;;2.26;100.00;97025.88;4979231;28;129757;-75
2022/01/03 02:33:33;;;;;;;9.38;4.85;;;1.40;99.90;;;2.20;100.00;97020.97;4993363;28;130615;-75
2022/01/03 02:36:05;;;;;;;8.02;5.32;;;1.30;99.90;;;2.19;100.00;97019.44;4983933;28;119914;-73
2022/01/03 02:38:35;;;;;;;8.15;4.60;;;1.30;99.90;;;2.12;100.00;97011.84;4984405;28;121219;-74
2022/01/03 02:41:03;;;;;;;8.95;4.90;;;1.30;99.90;;;2.04;100.00;96996.59;4975302;28;129867;-74
2022/01/03 02:43:33;;;;;;;7.60;4.38;;;1.40;99.90;;;1.97;100.00;96994.41;4993199;28;130037;-74
2022/01/03 02:46:03;;;;;;;7.00;4.00;;;1.40;99.90;;;2.11;100.00;96999.59;4978963;28;119629;-73
2022/01/03 02:48:31;;;;;;;8.15;4.95;;;1.50;99.90;;;2.16;100.00;96994.06;4960038;28;119429;-74
2022/01/03 02:51:00;;;;;;;9.30;4.88;;;1.50;99.90;;;2.17;100.00;96987.63;4958481;28;129648;-74
2022/01/03 02:53:31;;;;;;;8.80;5.03;;;1.50;99.90;;;2.28;100.00;96988.09;4958266;28;130502;-74
2022/01/03 02:56:00;;;;;;;9.75;5.03;;;1.60;99.90;;;2.37;100.00;96983.50;4975332;28;119329;-75
2022/01/03 02:58:29;;;;;;;8.55;4.63;;;1.60;99.90;;;2.36;100.00;96981.13;4979956;28;119211;-75
2022/01/03 03:00:58;;;;;;;10.07;5.68;;;1.60;99.90;;;2.38;100.00;96965.53;4962430;28;129862;-75
2022/01/03 03:03:33;;;;;;;8.13;5.00;;;1.60;99.90;;;2.32;100.00;96951.53;4963445;28;130099;-75
2022/01/03 03:06:02;;;;;;;10.80;5.63;;;1.60;99.90;;;2.29;100.00;96952.16;4996352;28;119857;-75
2022/01/03 03:08:34;;;;;;;10.38;6.00;;;1.60;99.90;;;2.31;100.00;96939.28;4964344;28;119178;-75
2022/01/03 03:11:03;;;;;;;10.15;5.47;;;1.60;99.90;;;2.28;100.00;96934.56;4971756;28;129756;-75
2022/01/03 03:13:31;;;;;;;9.60;5.25;;;1.60;99.90;;;2.31;100.00;96925.88;4963487;28;130242;-76
2022/01/03 03:16:03;;;;;;;11.13;5.78;;;1.60;99.90;;;2.40;100.00;96923.97;4963487;28;121648;-75
2022/01/03 03:18:32;;;;;;;11.30;5.82;;;1.70;99.90;;;2.39;100.00;96925.06;4961992;28;122095;-75
2022/01/03 03:21:01;;;;;;;10.00;6.28;;;1.70;99.90;;;2.32;100.00;96919.41;4964289;28;129833;-76
2022/01/03 03:23:29;;;;;;;9.95;5.75;;;1.70;99.90;;;2.41;100.00;96906.78;4980206;28;129777;-76
2022/01/03 03:26:02;;;;;;;10.70;5.82;;;1.70;99.90;;;2.31;100.00;96912.50;4977060;28;120563;-76
2022/01/03 03:28:30;;;;;;;10.43;6.32;;;1.70;99.90;;;2.46;100.00;96903.94;4965333;28;119286;-76
2022/01/03 03:31:04;;;;;;;12.88;6.60;;;1.80;99.90;;;2.37;100.00;96905.06;4980625;28;129667;-76
2022/01/03 03:33:48;;;;;;;11.50;6.45;;;1.70;99.90;;;2.37;100.00;96899.72;4964884;28;131104;-76
2022/01/03 03:36:17;;;;;;;12.85;6.32;;;1.80;99.90;;;2.41;100.00;96906.78;4981090;28;119446;-76
2022/01/03 03:38:46;;;;;;;14.60;7.75;;;1.90;99.90;;;2.53;100.00;96900.75;4961778;28;119606;-76
2022/01/03 03:41:20;;;;;;;12.10;7.20;;;2.00;99.90;;;2.69;100.00;96884.94;4978881;28;129460;-77
2022/01/03 03:43:52;;;;;;;13.70;7.70;;;2.00;99.90;;;2.76;100.00;96879.84;4975965;28;129999;-76
2022/01/03 03:46:22;;;;;;;14.68;7.85;;;2.10;99.90;;;2.83;100.00;96890.81;4989315;28;119778;-77
2022/01/03 03:48:51;;;;;;;17.08;9.10;;;2.10;99.90;;;2.83;100.00;96876.66;4962624;28;120177;-76
2022/01/03 03:51:24;;;;;;;14.38;8.57;;;2.30;99.90;;;2.77;100.00;96868.00;4963752;28;129637;-75
2022/01/03 03:53:55;;;;;;;15.75;10.18;;;2.40;99.90;;;2.96;100.00;96872.16;4978855;28;129508;-75
2022/01/03 03:56:28;;;;;;;16.13;9.68;;;2.60;99.90;;;3.16;100.00;96876.75;4981925;28;119249;-75
2022/01/03 03:58:57;;;;;;;18.80;10.52;;;3.00;99.90;;;3.32;100.00;96868.09;4975295;28;119550;-75
2022/01/03 04:01:25;;;;;;;20.73;10.55;;;3.20;99.90;;;3.47;100.00;96864.81;4980909;28;129992;-76
2022/01/03 04:03:57;;;;;;;20.13;10.95;;;3.30;99.90;;;3.54;100.00;96862.41;4980358;28;128807;-76
2022/01/03 04:06:27;;;;;;;17.30;9.95;;;3.30;99.90;;;3.63;100.00;96856.97;4963400;28;121733;-76
2022/01/03 04:08:59;;;;;;;16.95;9.50;;;3.30;99.90;;;3.74;100.00;96854.63;4964397;28;121819;-76
2022/01/03 04:11:30;;;;;;;17.58;10.95;;;3.40;99.90;;;3.78;100.00;96860.91;4964106;28;130190;-76
2022/01/03 04:14:02;;;;;;;19.38;10.57;;;3.50;99.90;;;3.85;100.00;96863.84;4979897;28;129759;-74
2022/01/03 04:16:32;;;;;;;19.92;11.48;;;3.50;99.90;;;3.95;100.00;96858.03;5000311;28;119193;-77
2022/01/03 04:19:00;;;;;;;15.85;9.80;;;3.60;99.90;;;4.03;100.00;96847.56;4945402;28;119515;-76
2022/01/03 04:21:29;;;;;;;17.17;10.23;;;3.70;99.90;;;4.12;100.00;96845.56;4978426;28;130555;-76
2022/01/03 04:23:58;;;;;;;17.90;11.05;;;3.80;99.90;;;4.12;100.00;96834.81;4965749;28;130212;-76
2022/01/03 04:26:28;;;;;;;17.45;10.70;;;3.80;99.90;;;4.10;100.00;96837.06;4965355;28;119568;-76
2022/01/03 04:28:57;;;;;;;19.25;11.77;;;3.80;99.90;;;4.19;100.00;96828.91;4954612;28;118785;-76
2022/01/03 04:31:26;;;;;;;22.00;13.00;;;3.90;99.90;;;4.27;100.00;96819.94;4965526;28;129917;-77
2022/01/03 04:33:54;;;;;;;19.98;11.85;;;4.00;99.90;;;4.29;100.00;96831.94;4967040;28;129328;-76
2022/01/03 04:36:23;;;;;;;23.08;12.25;;;4.00;99.90;;;4.36;100.00;96822.53;4966649;28;119849;-78
2022/01/03 04:38:52;;;;;;;23.88;12.43;;;4.10;99.90;;;4.49;100.00;96821.41;4970884;28;121952;-78
2022/01/03 04:41:23;;;;;;;22.02;13.43;;;4.20;99.90;;;4.46;100.00;96816.72;4976882;28;129817;-77
2022/01/03 04:43:53;;;;;;;18.35;11.73;;;4.20;99.90;;;4.55;100.00;96825.44;4999619;28;129653;-78
2022/01/03 04:46:22;;;;;;;18.65;11.63;;;4.30;99.90;;;4.61;100.00;96824.09;4968709;28;120001;-79
2022/01/03 04:48:51;;;;;;;22.80;12.88;;;4.30;99.90;;;4.72;100.00;96812.88;4981060;28;119143;-78
2022/01/03 04:51:19;;;;;;;19.30;12.30;;;4.40;99.90;;;4.76;100.00;96805.72;4962684;28;128953;-78
2022/01/03 04:53:48;;;;;;;25.27;13.88;;;4.30;99.90;;;4.82;100.00;96801.69;4958399;28;129272;-78
2022/01/03 04:56:18;;;;;;;24.73;13.65;;;4.30;99.90;;;4.86;100.00;96802.53;4980506;28;121962;-78
2022/01/03 04:58:48;;;;;;;22.17;13.32;;;4.30;99.90;;;4.86;100.00;96802.53;4983889;28;121341;-78
2022/01/03 05:01:18;;;;;;;20.15;11.98;;;4.40;99.90;;;4.96;100.00;96804.78;4979612;28;129650;-78
2022/01/03 05:03:52;;;;;;;17.02;11.00;;;4.50;99.90;;;4.85;100.00;96795.63;4976608;28;129486;-78
2022/01/03 05:06:21;;;;;;;24.73;12.75;;;4.50;99.90;;;4.86;100.00;96797.97;4978693;28;119390;-78
2022/01/03 05:08:51;;;;;;;18.25;11.65;;;4.50;99.90;;;4.89;100.00;96790.34;4983661;28;118823;-79
2022/01/03 05:11:21;;;;;;;17.75;12.07;;;4.60;99.90;;;4.84;100.00;96783.28;4979591;28;130040;-78
2022/01/03 05:13:51;;;;;;;18.60;12.32;;;4.60;99.90;;;4.91;100.00;96783.50;4974711;28;129464;-79
2022/01/03 05:16:21;;;;;;;21.63;12.10;;;4.60;99.90;;;4.92;100.00;96777.00;4964025;28;119681;-78
2022/01/03 05:18:58;;;;;;;19.33;11.95;;;4.60;99.90;;;4.90;100.00;96776.56;4963472;28;120365;-78
2022/01/03 05:21:27;;;;;;;20.90;13.35;;;4.60;99.90;;;4.88;100.00;96773.44;4963514;28;129013;-78
2022/01/03 05:23:56;;;;;;;22.35;13.27;;;4.60;99.90;;;4.98;100.00;96766.78;4982501;28;130359;-78
2022/01/03 05:26:27;;;;;;;20.05;12.90;;;4.60;99.90;;;5.00;100.00;96764.53;4966249;28;120117;-78
2022/01/03 05:28:58;;;;;;;18.88;12.48;;;4.60;99.90;;;5.01;100.00;96756.13;4966889;28;119160;-78
2022/01/03 05:31:29;;;;;;;21.38;13.35;;;4.60;99.90;;;4.98;100.00;96754.13;4967655;28;129517;-78
2022/01/03 05:34:00;;;;;;;21.52;12.82;;;4.70;99.90;;;5.01;100.00;96750.75;4999121;28;130316;-78
2022/01/03 05:36:30;;;;;;;20.13;12.63;;;4.70;99.90;;;5.05;100.00;96745.50;4998295;28;118858;-78
2022/01/03 05:38:58;;;;;;;19.48;12.05;;;4.70;99.90;;;5.08;100.00;96749.41;4934206;28;118988;-78
2022/01/03 05:41:29;;;;;;;18.80;12.27;;;4.70;99.90;;;5.07;100.00;96743.25;4981765;28;129442;-79
2022/01/03 05:43:58;;;;;;;19.77;11.57;;;4.70;99.90;;;5.13;100.00;96744.56;4959274;28;129266;-78
2022/01/03 05:46:28;;;;;;;19.52;11.93;;;4.90;99.90;;;5.20;100.00;96741.28;4980024;28;121279;-78
2022/01/03 05:48:58;;;;;;;20.10;11.95;;;4.90;99.90;;;5.17;100.00;96736.59;4965572;28;120656;-79
2022/01/03 05:51:27;;;;;;;18.90;11.25;;;4.90;99.90;;;5.23;100.00;96740.59;4981418;28;128585;-80
2022/01/03 05:53:57;;;;;;;18.35;11.63;;;5.00;99.90;;;5.28;100.00;96732.28;4974870;28;129306;-82
2022/01/03 05:56:28;;;;;;;18.00;11.23;;;5.10;99.90;;;5.15;100.00;96738.84;4959311;28;118631;-82
2022/01/03 05:58:57;;;;;;;19.73;11.45;;;5.10;99.90;;;5.28;100.00;96737.66;4947262;28;118768;-81
2022/01/03 06:01:28;;;;;;;18.88;11.77;;;5.10;99.90;;;5.34;100.00;96738.19;4962351;28;129596;-80
2022/01/03 06:04:01;;;;;;;19.65;10.82;;;5.20;99.90;;;5.32;100.00;96738.53;4962740;28;129410;-78
2022/01/03 06:06:53;;;;;;;15.50;9.93;;;5.20;99.90;;;5.36;100.00;96742.13;4978001;28;118885;-79
2022/01/03 06:09:26;;;;;;;17.10;10.27;;;5.20;99.90;;;5.39;100.00;96748.69;4988209;28;119451;-79
2022/01/03 06:11:56;;;;;;;17.40;11.75;;;5.20;99.90;;;5.44;100.00;96739.59;4958626;28;129486;-79
2022/01/03 06:14:33;;;;;;;17.25;9.57;;;5.20;99.90;;;5.46;100.00;96737.34;4961436;28;129766;-80
2022/01/03 06:17:06;;;;;;;13.73;9.07;;;5.20;99.90;;;5.42;100.00;96739.16;4959617;28;119439;-80
2022/01/03 06:19:39;;;;;;;11.48;8.43;;;5.30;99.90;;;5.46;100.00;96742.75;4980724;28;118819;-78
2022/01/03 06:22:08;;;;;;;11.93;8.43;;;5.30;99.90;;;5.54;100.00;96731.03;4975537;28;129711;-80
2022/01/03 06:24:40;;;;;;;14.02;8.50;;;5.30;99.90;;;5.51;100.00;96734.41;4955849;28;129666;-80
2022/01/03 06:27:10;;;;;;;12.05;7.68;;;5.40;99.90;;;5.47;100.00;96733.53;4946256;28;118560;-81
2022/01/03 06:29:39;;;;;;;13.25;8.18;;;5.40;99.90;;;5.54;100.00;96728.34;4998551;28;118556;-80
2022/01/03 06:32:10;;;;;;;10.88;7.40;;;5.40;99.90;;;5.56;100.00;96736.84;4998454;28;129711;-81
2022/01/03 06:34:39;;;;;;;13.82;7.60;;;5.40;99.90;;;5.53;100.00;96737.53;4973859;28;129903;-81
2022/01/03 06:37:07;;;;;;;8.77;6.72;;;5.50;99.90;;;5.56;100.00;96736.84;4977057;28;121640;-80
2022/01/03 06:39:46;;;;;;;10.07;6.80;;;5.50;99.90;;;5.53;100.00;96732.13;4959183;28;121746;-81
2022/01/03 06:42:15;;;;;;;13.00;8.20;;;5.50;99.90;;;5.56;100.00;96736.84;4981878;28;129549;-79
2022/01/03 06:44:46;;;;;;;10.10;6.25;;;5.40;99.90;;;5.60;100.00;96736.94;4965515;28;129782;-80
2022/01/03 06:47:18;;;;;;;13.55;7.45;;;5.50;99.90;;;5.69;100.00;96740.25;4988477;28;119493;-77
2022/01/03 06:49:47;;;;;;;8.98;6.03;;;5.50;99.90;;;5.64;100.00;96733.22;4978958;28;118573;-80
2022/01/03 06:52:16;;;;;;;8.93;5.00;;;5.50;99.90;;;5.69;100.00;96730.25;4976510;28;129382;-80
2022/01/03 06:54:45;;;;;;;8.90;5.57;;;5.50;99.90;;;5.70;100.00;96731.81;4998458;28;129655;-80
2022/01/03 06:57:15;;;;;;;7.63;5.30;;;5.50;99.90;;;5.71;100.00;96727.22;4948777;28;118919;-80
2022/01/03 06:59:45;;;;;;;11.02;6.90;;;5.40;99.90;;;5.66;100.00;96741.72;4998484;28;119590;-80
2022/01/03 07:02:16;;;;;;;8.02;5.53;;;5.40;99.90;;;5.67;100.00;96727.13;4993052;28;130021;-80
2022/01/03 07:04:44;;;;;;;9.48;6.13;;;5.40;99.90;;;5.69;100.00;96745.63;4963017;28;129462;-80
2022/01/03 07:07:13;;;;;;;9.68;5.95;;;5.50;99.90;;;5.70;100.00;96742.59;4964846;28;120331;-79
2022/01/03 07:09:42;;;;;;;8.80;6.28;;;5.50;99.90;;;5.70;100.00;96737.22;4956524;28;119541;-81
2022/01/03 07:12:11;;;;;;;7.05;4.60;;;5.40;99.90;;;5.64;100.00;96749.34;4964831;28;129559;-80
2022/01/03 07:20:17;;;;;;;7.85;4.47;;;5.40;99.90;;;5.59;100.00;96757.66;4962407;28;119378;-82
2022/01/03 07:22:47;;;;;;;5.97;3.60;;;5.40;99.90;;;5.56;100.00;96758.34;4957912;28;129560;-79
2022/01/03 07:25:16;;;;;;;6.15;3.50;;;5.30;99.90;;;5.53;100.00;96759.03;4960487;28;129100;-81
2022/01/03 07:27:44;;;;;;;5.85;2.83;;;5.40;99.90;;;5.49;100.00;96758.97;4953812;28;122578;-82
2022/01/03 07:30:13;;;;;;;5.68;2.70;;;5.30;99.90;;;5.38;100.00;96764.06;4964891;28;121102;-83
2022/01/03 07:32:43;;;;;;;4.78;2.92;;;5.30;99.90;;;5.44;100.00;96761.09;4963022;28;129497;-84
2022/01/03 07:35:16;;;;;;;6.10;2.90;;;5.20;99.90;;;5.33;100.00;96767.00;4962605;28;129616;-86
2022/01/03 07:37:45;;;;;;;5.78;2.53;;;5.20;99.90;;;5.25;100.00;96770.63;4963102;28;120628;-81
2022/01/03 07:40:14;;;;;;;6.18;2.78;;;5.20;99.90;;;5.24;100.00;96779.81;4975657;28;119385;-81
2022/01/03 07:42:43;;;;;;;4.10;2.30;;;5.10;99.90;;;5.13;100.00;96784.91;4964734;28;129491;-81
2022/01/03 07:45:13;;;;;;;4.32;2.40;;;5.10;99.90;;;5.08;100.00;96782.47;4966408;28;128762;-84
2022/01/03 07:47:43;;;;;;;4.22;2.13;;;5.10;99.90;;;5.06;100.00;96790.06;4981081;28;120144;-81
2022/01/03 07:50:13;;;;;;;5.75;3.17;;;5.00;99.90;;;5.03;100.00;96801.50;4962626;28;118431;-81
2022/01/03 07:52:42;;;;;;;3.92;2.30;;;5.00;99.90;;;4.90;100.00;96803.44;4964951;28;130048;-79
2022/01/03 07:55:15;;;;;;;9.02;5.20;;;4.90;99.90;;;4.79;100.00;96799.66;4964583;28;128876;-82
2022/01/03 07:57:45;;;;;;;6.72;4.18;;;4.80;99.90;;;4.78;100.00;96811.53;4964323;28;118144;-81
2022/01/03 08:00:17;;;;;;;12.65;7.95;;;4.70;99.90;;;4.63;100.00;96816.47;4975175;28;119502;-82
2022/01/03 08:02:48;;;;;;;12.75;7.70;;;4.70;99.90;;;4.64;100.00;96823.44;4964313;28;129597;-82
2022/01/03 08:05:17;;;;;;;8.35;5.68;;;4.60;99.90;;;4.30;100.00;96824.66;4961872;28;129942;-82
2022/01/03 08:07:46;;;;;;;14.13;8.05;;;4.40;99.90;;;4.19;100.00;96829.69;4941913;28;118740;-83
2022/01/03 08:10:15;;;;;;;25.02;15.23;;;4.40;99.90;;;4.28;100.00;96834.94;4978318;28;119155;-83
2022/01/03 08:12:44;;;;;;;33.30;19.02;;;4.30;99.90;;;4.52;100.00;96842.22;4980346;28;129340;-84
2022/01/03 08:15:13;;;;;;;24.95;15.85;;;4.40;99.90;;;4.71;100.00;96838.19;4977403;28;131220;-84
2022/01/03 08:17:44;;;;;;;39.58;25.40;;;4.40;99.90;;;4.87;100.00;96847.13;4946924;28;121166;-84
2022/01/03 08:20:15;;;;;;;37.30;23.27;;;4.40;99.90;;;5.08;100.00;96856.94;4949625;28;121770;-84
2022/01/03 08:22:44;;;;;;;29.88;17.23;;;4.50;99.90;;;5.14;100.00;96844.81;4961899;28;129603;-84
2022/01/03 08:25:13;;;;;;;13.48;8.93;;;4.50;99.90;;;5.10;100.00;96857.38;4963573;28;128578;-82
2022/01/03 08:27:42;;;;;;;12.25;8.10;;;4.50;99.90;;;5.04;100.00;96856.81;4965422;28;120551;-84
2022/01/03 08:30:11;;;;;;;7.15;4.00;;;4.50;99.90;;;5.04;100.00;96862.97;4959990;28;118761;-84
2022/01/03 08:32:40;;;;;;;6.00;3.20;;;4.50;99.90;;;5.03;100.00;96866.81;4963888;28;129566;-84
2022/01/03 08:35:11;;;;;;;7.45;4.43;;;4.50;99.90;;;4.95;100.00;96870.38;4997061;28;130240;-84
2022/01/03 08:37:41;;;;;;;9.60;5.63;;;4.50;99.90;;;4.88;100.00;96869.38;4962602;28;119513;-84
2022/01/03 08:40:12;;;;;;;9.85;5.57;;;4.40;99.90;;;4.79;100.00;96888.34;4972676;28;118880;-83
2022/01/03 08:42:40;;;;;;;9.75;6.32;;;4.30;99.90;;;4.65;100.00;96889.44;4991619;28;129102;-86
2022/01/03 08:45:10;;;;;;;6.45;4.15;;;4.30;99.90;;;4.53;100.00;96889.44;4983179;28;128838;-84
2022/01/03 08:47:39;;;;;;;8.15;5.07;;;4.20;99.90;;;4.44;100.00;96894.94;4963515;28;119401;-82
2022/01/03 08:50:09;;;;;;;7.93;4.93;;;4.10;99.90;;;4.35;100.00;96896.13;4965365;28;120476;-83
2022/01/03 08:52:38;;;;;;;8.43;5.03;;;4.10;99.90;;;4.25;100.00;96898.13;4964844;28;129083;-83
2022/01/03 08:55:09;;;;;;;9.88;5.25;;;4.00;99.90;;;4.20;100.00;96905.63;4966594;28;129699;-81
2022/01/03 08:57:40;;;;;;;10.68;5.88;;;4.00;99.90;;;4.09;100.00;96903.38;4964968;28;119273;-81
2022/01/03 09:00:12;;;;;;;6.40;3.95;;;3.90;99.90;;;4.00;100.00;96907.25;4966731;28;119613;-80
2022/01/03 09:02:41;;;;;;;7.10;4.25;;;3.90;99.90;;;3.91;100.00;96902.78;4965492;28;129162;-82
2022/01/03 09:05:10;;;;;;;8.13;5.05;;;3.90;99.90;;;3.95;100.00;96911.72;4965570;28;129526;-82
2022/01/03 09:07:39;;;;;;;6.72;4.25;;;3.80;99.90;;;3.92;100.00;96923.13;4964653;28;121765;-82
2022/01/03 09:10:11;;;;;;;8.07;4.97;;;3.80;99.90;;;3.95;100.00;96927.03;4973532;28;121068;-83
2022/01/03 09:12:39;;;;;;;8.15;4.03;;;3.80;99.90;;;4.00;100.00;96923.38;4971486;28;129370;-82
2022/01/03 09:15:09;;;;;;;10.95;6.07;;;3.70;99.90;;;4.02;100.00;96931.88;4962962;28;129603;-82
2022/01/03 09:17:37;;;;;;;9.38;5.28;;;3.70;99.90;;;4.04;100.00;96940.38;4980366;28;120900;-82
2022/01/03 09:20:09;;;;;;;10.45;6.25;;;3.70;99.90;;;4.04;100.00;96940.38;4965971;28;119038;-82
2022/01/03 09:22:42;;;;;;;10.05;5.65;;;3.70;99.90;;;4.04;100.00;96935.78;4998855;28;129151;-83
2022/01/03 09:30:47;;;;;;;7.30;4.10;;;3.60;99.90;;;4.08;100.00;96943.97;4949959;28;118698;-81
2022/01/03 09:33:15;;;;;;;10.02;4.93;;;3.70;99.90;;;4.25;100.00;96946.47;4959082;28;130295;-81
2022/01/03 09:35:45;;;;;;;8.55;4.63;;;3.70;99.90;;;4.55;100.00;96946.31;4955980;28;129353;-79
2022/01/03 09:38:14;;;;;;;9.70;4.82;;;3.70;99.90;;;4.59;100.00;96944.50;4961632;28;119476;-76
2022/01/03 09:40:48;;;;;;;7.32;3.65;;;3.80;99.90;;;4.64;100.00;96955.06;4959017;28;118811;-81
2022/01/03 09:43:19;;;;;;;6.97;3.50;;;3.70;99.90;;;4.54;100.00;96963.53;4967875;28;129326;-81
2022/01/03 09:45:49;;;;;;;5.93;3.33;;;3.70;99.90;;;4.36;100.00;96962.16;4963891;28;130097;-83
2022/01/03 09:48:18;;;;;;;7.13;3.70;;;3.70;99.90;;;4.23;100.00;96959.44;4978047;28;120189;-80
2022/01/03 09:50:47;;;;;;;4.28;2.50;;;3.70;99.90;;;4.12;100.00;96956.38;4956283;28;119965;-80
2022/01/03 09:53:19;;;;;;;6.05;2.90;;;3.60;99.90;;;4.06;100.00;96965.00;4964495;28;130079;-81
2022/01/03 09:55:50;;;;;;;10.07;5.50;;;3.50;99.90;;;3.89;100.00;96972.06;4949200;28;129234;-81
2022/01/03 09:58:31;;;;;;;6.57;3.17;;;3.50;99.90;;;3.76;100.00;96978.50;4965474;28;121906;-81
2022/01/03 10:01:13;;;;;;;5.68;3.42;;;3.40;99.90;;;3.67;100.00;96975.88;4963240;28;122252;-81
2022/01/03 10:03:47;;;;;;;5.97;3.42;;;3.30;99.90;;;3.46;100.00;96986.63;4981011;28;129763;-80
2022/01/03 10:06:23;;;;;;;8.82;4.53;;;3.20;99.90;;;3.38;100.00;96995.47;4961172;28;129459;-81
2022/01/03 10:08:55;;;;;;;7.28;4.18;;;3.20;99.90;;;3.32;100.00;96996.78;4961312;28;119918;-81
2022/01/03 10:11:28;;;;;;;7.93;3.92;;;3.20;99.90;;;3.27;100.00;96999.66;4998431;28;119198;-81
2022/01/03 10:13:56;;;;;;;8.77;4.60;;;3.10;99.90;;;3.10;100.00;97006.72;4996842;28;129310;-79
2022/01/03 10:16:33;;;;;;;8.30;5.15;;;3.00;99.90;;;3.03;100.00;97006.41;4963534;28;130070;-81
2022/01/03 10:19:02;;;;;;;10.40;5.03;;;3.00;99.90;;;3.00;100.00;97007.06;4965998;28;118724;-81
2022/01/03 10:21:38;;;;;;;10.35;5.85;;;3.00;99.90;;;2.97;100.00;97002.34;4962045;28;119580;-80
2022/01/03 10:24:08;;;;;;;6.37;3.73;;;3.00;99.90;;;2.94;100.00;97013.69;4962338;28;130535;-80
2022/01/03 10:26:53;;;;;;;8.13;5.00;;;3.00;99.90;;;2.94;100.00;97016.38;4964647;28;129698;-80
2022/01/03 10:29:24;;;;;;;10.90;6.20;;;2.90;99.90;;;2.97;100.00;97013.84;4963266;28;120526;-81
2022/01/03 10:32:09;;;;;;;13.27;7.20;;;2.90;99.90;;;3.12;100.00;97020.56;4965596;28;119283;-83
2022/01/03 10:34:39;;;;;;;11.23;7.03;;;2.90;99.90;;;3.23;100.00;97021.75;4965208;28;129767;-82
2022/01/03 10:37:14;;;;;;;16.30;9.10;;;2.90;99.90;;;3.22;100.00;97014.81;4981339;28;129503;-83
2022/01/03 10:39:43;;;;;;;12.13;7.78;;;3.00;99.90;;;3.50;100.00;97022.38;4963779;28;120733;-83
2022/01/03 10:42:18;;;;;;;13.55;8.43;;;3.00;99.90;;;3.54;100.00;97031.34;4959470;28;118804;-84
2022/01/03 10:44:49;;;;;;;10.07;6.57;;;3.00;99.90;;;3.12;100.00;97028.59;4957172;28;129885;-84
2022/01/03 10:47:33;;;;;;;16.35;9.98;;;3.00;99.90;;;3.40;100.00;97036.19;4965538;28;130263;-83